createdAt,value
2018-11-29T00:01:07.781Z,6.90
2018-11-29T00:03:36.057Z,6.80
2018-11-29T00:06:04.505Z,6.90
2018-11-29T00:08:32.818Z,6.90
2018-11-29T00:11:01.106Z,7.00
2018-11-29T00:13:29.426Z,7.00
2018-11-29T00:15:57.763Z,7.00
2018-11-29T00:18:26.238Z,7.00
2018-11-29T00:20:54.535Z,7.00
2018-11-29T00:23:22.811Z,6.90
2018-11-29T00:25:51.321Z,6.90
2018-11-29T00:28:19.625Z,7.00
2018-11-29T00:30:47.897Z,6.90
2018-11-29T00:33:16.202Z,6.90
2018-11-29T00:35:44.480Z,7.00
2018-11-29T00:38:12.769Z,7.00
2018-11-29T00:40:41.095Z,7.00
2018-11-29T00:43:09.376Z,7.10
2018-11-29T00:45:37.593Z,7.00
2018-11-29T00:48:05.873Z,7.10
2018-11-29T00:50:34.117Z,7.10
2018-11-29T00:53:02.447Z,7.00
2018-11-29T00:55:30.663Z,7.10
2018-11-29T00:57:58.967Z,7.00
2018-11-29T01:00:27.248Z,7.00
2018-11-29T01:02:55.530Z,7.00
2018-11-29T01:05:23.773Z,7.00
2018-11-29T01:07:52.020Z,7.10
2018-11-29T01:10:20.300Z,7.00
2018-11-29T01:12:48.994Z,7.00
2018-11-29T01:15:19.554Z,7.00
2018-11-29T01:17:48.615Z,7.00
2018-11-29T01:20:18.911Z,7.10
2018-11-29T01:22:47.235Z,7.10
2018-11-29T01:25:16.141Z,7.10
2018-11-29T01:27:45.443Z,7.00
2018-11-29T01:30:14.598Z,7.00
2018-11-29T01:32:42.921Z,7.00
2018-11-29T01:35:12.955Z,7.00
2018-11-29T01:37:41.277Z,7.10
2018-11-29T01:40:15.017Z,7.00
2018-11-29T01:42:44.262Z,6.90
2018-11-29T01:45:12.707Z,6.90
2018-11-29T01:47:40.999Z,6.70
2018-11-29T01:50:09.275Z,6.60
2018-11-29T01:52:37.563Z,6.40
2018-11-29T01:55:07.437Z,6.40
2018-11-29T01:57:35.763Z,6.40
2018-11-29T02:00:04.132Z,6.20
2018-11-29T02:02:32.438Z,6.20
2018-11-29T02:05:00.788Z,6.00
2018-11-29T02:07:29.063Z,5.90
2018-11-29T02:10:02.828Z,5.80
2018-11-29T02:12:31.127Z,5.60
2018-11-29T02:14:59.455Z,5.60
2018-11-29T02:17:27.729Z,5.60
2018-11-29T02:19:55.968Z,5.60
2018-11-29T02:22:24.530Z,5.70
2018-11-29T02:24:52.825Z,5.60
2018-11-29T02:27:21.153Z,5.70
2018-11-29T02:29:49.540Z,5.70
2018-11-29T02:32:17.815Z,5.70
2018-11-29T02:34:46.075Z,5.70
2018-11-29T02:37:14.350Z,5.80
2018-11-29T02:39:42.591Z,5.80
2018-11-29T02:42:10.867Z,5.70
2018-11-29T02:44:39.243Z,5.80
2018-11-29T02:47:07.549Z,5.70
2018-11-29T02:49:36.062Z,5.70
2018-11-29T02:52:04.625Z,5.70
2018-11-29T02:54:32.926Z,5.70
2018-11-29T02:57:01.259Z,5.80
2018-11-29T02:59:29.561Z,5.80
2018-11-29T03:01:57.930Z,5.70
2018-11-29T03:04:26.244Z,5.80
2018-11-29T03:06:54.509Z,5.80
2018-11-29T03:09:22.813Z,5.80
2018-11-29T03:11:51.148Z,5.70
2018-11-29T03:14:19.527Z,5.80
2018-11-29T03:16:47.797Z,5.80
2018-11-29T03:19:16.094Z,5.80
2018-11-29T03:21:44.393Z,5.90
2018-11-29T03:24:12.724Z,5.90
2018-11-29T03:26:41.040Z,6.00
2018-11-29T03:29:09.363Z,6.00
2018-11-29T03:31:37.663Z,6.00
2018-11-29T03:34:07.037Z,6.10
2018-11-29T03:36:35.732Z,6.10
2018-11-29T03:39:05.325Z,6.00
2018-11-29T03:41:33.592Z,6.10
2018-11-29T03:44:01.862Z,6.10
2018-11-29T03:46:30.104Z,5.90
2018-11-29T03:48:58.333Z,5.80
2018-11-29T03:51:26.778Z,5.80
2018-11-29T03:53:55.030Z,5.60
2018-11-29T03:56:23.323Z,5.50
2018-11-29T03:58:51.606Z,5.50
2018-11-29T04:01:19.901Z,5.60
2018-11-29T04:03:48.227Z,5.50
2018-11-29T04:06:16.516Z,5.30
2018-11-29T04:08:44.824Z,5.40
2018-11-29T04:11:13.163Z,5.30
2018-11-29T04:13:41.397Z,5.30
2018-11-29T04:16:09.662Z,5.30
2018-11-29T04:18:37.928Z,5.10
2018-11-29T04:21:06.265Z,5.10
2018-11-29T04:23:34.585Z,5.10
2018-11-29T04:26:02.833Z,5.20
2018-11-29T04:28:31.104Z,5.10
2018-11-29T04:30:59.365Z,5.10
2018-11-29T04:33:27.599Z,5.00
2018-11-29T04:35:55.842Z,5.00
2018-11-29T04:38:24.115Z,5.10
2018-11-29T04:40:52.670Z,5.10
2018-11-29T04:43:20.922Z,5.10
2018-11-29T04:46:00.629Z,5.00
2018-11-29T04:48:29.177Z,4.90
2018-11-29T04:50:57.464Z,5.00
2018-11-29T04:53:25.740Z,4.90
2018-11-29T04:55:54.069Z,4.80
2018-11-29T04:58:22.323Z,4.70
2018-11-29T05:00:50.646Z,4.60
2018-11-29T05:03:18.975Z,4.60
2018-11-29T05:05:47.246Z,4.50
2018-11-29T05:08:15.486Z,4.70
2018-11-29T05:10:43.823Z,4.70
2018-11-29T05:13:12.159Z,4.60
2018-11-29T05:15:40.480Z,4.50
2018-11-29T05:18:08.771Z,4.50
2018-11-29T05:20:37.031Z,4.50
2018-11-29T05:23:05.614Z,4.40
2018-11-29T05:25:33.883Z,4.40
2018-11-29T05:28:02.224Z,4.40
2018-11-29T05:30:30.480Z,4.50
2018-11-29T05:32:58.796Z,4.40
2018-11-29T05:35:27.189Z,4.40
2018-11-29T05:37:55.442Z,4.40
2018-11-29T05:40:23.761Z,4.40
2018-11-29T05:42:52.861Z,4.40
2018-11-29T05:45:21.095Z,4.30
2018-11-29T05:47:49.339Z,4.30
2018-11-29T05:50:17.547Z,4.20
2018-11-29T05:52:45.819Z,4.20
2018-11-29T05:55:14.071Z,4.10
2018-11-29T05:57:42.442Z,4.00
2018-11-29T06:00:13.723Z,4.00
2018-11-29T06:02:42.307Z,4.10
2018-11-29T06:05:11.778Z,4.20
2018-11-29T06:07:39.994Z,4.20
2018-11-29T06:10:08.512Z,4.20
2018-11-29T06:12:36.756Z,4.30
2018-11-29T06:15:07.598Z,4.50
2018-11-29T06:17:35.900Z,4.50
2018-11-29T06:20:04.465Z,4.50
2018-11-29T06:22:32.709Z,4.50
2018-11-29T06:25:01.029Z,4.50
2018-11-29T06:27:29.309Z,4.60
2018-11-29T06:29:57.631Z,4.50
2018-11-29T06:32:26.052Z,4.50
2018-11-29T06:34:57.429Z,4.50
2018-11-29T06:37:25.736Z,4.30
2018-11-29T06:39:54.053Z,4.30
2018-11-29T06:42:22.316Z,4.30
2018-11-29T06:44:50.589Z,4.30
2018-11-29T06:47:18.936Z,4.30
2018-11-29T06:49:47.289Z,4.10
2018-11-29T06:52:15.565Z,4.00
2018-11-29T06:54:43.833Z,4.10
2018-11-29T06:57:12.107Z,4.10
2018-11-29T06:59:40.416Z,4.00
2018-11-29T07:02:08.648Z,3.90
2018-11-29T07:04:37.021Z,3.80
2018-11-29T07:07:05.504Z,3.90
2018-11-29T07:09:33.808Z,3.90
2018-11-29T07:12:02.078Z,3.90
2018-11-29T07:14:30.350Z,4.10
2018-11-29T07:16:59.584Z,4.00
2018-11-29T07:19:28.173Z,4.00
2018-11-29T07:21:56.345Z,4.00
2018-11-29T07:24:25.013Z,4.00
2018-11-29T07:26:53.297Z,4.00
2018-11-29T07:29:21.540Z,4.10
2018-11-29T07:31:49.845Z,4.10
2018-11-29T07:34:18.136Z,3.90
2018-11-29T07:36:46.491Z,3.90
2018-11-29T07:39:14.764Z,4.00
2018-11-29T07:41:43.070Z,3.90
2018-11-29T07:44:11.415Z,3.90
2018-11-29T07:46:39.764Z,4.00
2018-11-29T07:49:08.052Z,4.00
2018-11-29T07:51:36.376Z,4.00
2018-11-29T07:54:04.749Z,4.10
2018-11-29T07:56:33.095Z,4.10
2018-11-29T07:59:01.343Z,4.00
2018-11-29T08:01:29.686Z,4.10
2018-11-29T08:03:57.959Z,4.20
2018-11-29T08:06:26.378Z,4.40
2018-11-29T08:08:54.738Z,4.40
2018-11-29T08:11:23.033Z,4.40
2018-11-29T08:13:51.295Z,4.40
2018-11-29T08:16:19.617Z,4.40
2018-11-29T08:18:47.885Z,4.50
2018-11-29T08:21:16.123Z,4.50
2018-11-29T08:23:44.483Z,4.50
2018-11-29T08:26:12.779Z,4.60
2018-11-29T08:28:41.098Z,4.70
2018-11-29T08:31:09.394Z,4.80
2018-11-29T08:33:37.711Z,4.80
2018-11-29T08:36:06.065Z,4.90
2018-11-29T08:38:34.368Z,4.90
2018-11-29T08:41:02.621Z,4.90
2018-11-29T08:43:31.025Z,5.10
2018-11-29T08:45:59.234Z,5.20
2018-11-29T08:48:27.549Z,5.30
2018-11-29T08:50:58.828Z,5.40
2018-11-29T08:53:27.254Z,5.40
2018-11-29T08:55:55.556Z,5.50
2018-11-29T08:58:23.864Z,5.60
2018-11-29T09:00:52.177Z,5.70
2018-11-29T09:03:20.529Z,5.90
2018-11-29T09:05:48.850Z,6.00
2018-11-29T09:08:17.060Z,6.00
2018-11-29T09:10:45.609Z,6.20
2018-11-29T09:13:13.665Z,6.30
2018-11-29T09:15:41.908Z,6.40
2018-11-29T09:18:10.173Z,6.50
2018-11-29T09:20:38.418Z,6.70
2018-11-29T09:23:07.080Z,6.80
2018-11-29T09:25:35.566Z,6.90
2018-11-29T09:28:03.889Z,7.10
2018-11-29T09:30:32.123Z,7.20
2018-11-29T09:33:00.434Z,7.30
2018-11-29T09:35:28.760Z,7.50
2018-11-29T09:37:57.006Z,7.60
2018-11-29T09:40:25.337Z,7.60
2018-11-29T09:42:53.735Z,7.60
2018-11-29T09:45:22.844Z,7.70
2018-11-29T09:47:53.293Z,7.70
2018-11-29T09:50:21.712Z,7.80
2018-11-29T09:52:50.026Z,7.80
2018-11-29T09:55:18.416Z,7.90
2018-11-29T09:57:47.737Z,7.90
2018-11-29T10:00:27.743Z,7.70
2018-11-29T10:03:02.864Z,7.70
2018-11-29T10:05:34.167Z,7.60
2018-11-29T10:08:02.546Z,7.60
2018-11-29T10:10:30.816Z,7.70
2018-11-29T10:12:59.062Z,7.80
2018-11-29T10:15:27.435Z,7.70
2018-11-29T10:17:55.703Z,7.60
2018-11-29T10:20:24.035Z,7.50
2018-11-29T10:22:52.324Z,7.50
2018-11-29T10:25:20.632Z,7.50
2018-11-29T10:27:50.940Z,7.60
2018-11-29T10:31:22.554Z,7.60
2018-11-29T10:33:50.821Z,7.70
2018-11-29T10:36:19.113Z,7.90
2018-11-29T10:38:47.370Z,8.10
2018-11-29T10:41:15.674Z,8.30
2018-11-29T10:43:43.976Z,8.30
2018-11-29T10:46:12.185Z,8.30
2018-11-29T10:48:40.440Z,8.20
2018-11-29T10:51:08.740Z,8.20
2018-11-29T10:53:38.104Z,8.20
2018-11-29T10:56:05.402Z,8.30
2018-11-29T10:58:33.796Z,8.30
2018-11-29T11:01:07.386Z,8.40
2018-11-29T11:03:35.724Z,8.50
2018-11-29T11:06:04.017Z,8.60
2018-11-29T11:08:32.303Z,8.80
2018-11-29T11:11:04.802Z,9.00
2018-11-29T11:13:33.116Z,9.10
2018-11-29T11:16:01.486Z,9.10
2018-11-29T11:18:29.810Z,9.20
2018-11-29T11:20:58.094Z,9.30
2018-11-29T11:23:26.422Z,9.30
2018-11-29T11:25:54.826Z,9.40
2018-11-29T11:28:23.155Z,9.50
2018-11-29T11:30:51.463Z,9.60
2018-11-29T11:33:19.735Z,9.60
2018-11-29T11:35:48.022Z,9.50
2018-11-29T11:38:16.332Z,9.20
2018-11-29T11:40:44.607Z,9.00
2018-11-29T11:43:12.934Z,8.80
2018-11-29T11:45:41.249Z,8.70
2018-11-29T11:48:09.495Z,8.90
2018-11-29T11:50:37.849Z,8.90
2018-11-29T11:53:07.419Z,9.00
2018-11-29T11:55:36.074Z,8.80
2018-11-29T11:58:04.416Z,8.90
2018-11-29T12:00:32.914Z,8.80
2018-11-29T12:03:03.900Z,8.60
2018-11-29T12:05:32.134Z,8.70
2018-11-29T12:08:00.414Z,8.70
2018-11-29T12:10:28.691Z,8.70
2018-11-29T12:12:56.955Z,8.90
2018-11-29T12:15:25.261Z,8.80
2018-11-29T12:17:53.545Z,8.90
2018-11-29T12:20:21.848Z,8.90
2018-11-29T12:22:50.122Z,9.10
2018-11-29T12:25:19.517Z,9.00
2018-11-29T12:27:47.879Z,9.20
2018-11-29T12:30:35.274Z,9.10
2018-11-29T12:33:04.482Z,9.20
2018-11-29T12:35:32.797Z,9.10
2018-11-29T12:38:01.095Z,9.10
2018-11-29T12:40:29.518Z,9.00
2018-11-29T12:42:57.878Z,8.80
2018-11-29T12:45:26.275Z,8.70
2018-11-29T12:47:54.526Z,8.80
2018-11-29T12:50:23.990Z,8.90
2018-11-29T12:52:52.360Z,9.00
2018-11-29T12:55:21.631Z,9.10
2018-11-29T12:58:04.486Z,9.00
2018-11-29T13:00:20.213Z,9.20
2018-11-29T13:02:54.643Z,9.20
2018-11-29T13:05:22.938Z,9.30
2018-11-29T13:07:51.242Z,9.00
2018-11-29T13:10:22.444Z,9.00
2018-11-29T13:12:50.817Z,9.10
2018-11-29T13:15:21.628Z,9.20
2018-11-29T13:17:49.908Z,9.20
2018-11-29T13:20:18.251Z,9.30
2018-11-29T13:22:46.610Z,9.30
2018-11-29T13:25:16.919Z,9.30
2018-11-29T13:27:45.245Z,9.40
2018-11-29T13:30:17.509Z,9.30
2018-11-29T13:32:45.973Z,9.30
2018-11-29T13:35:19.989Z,9.10
2018-11-29T13:37:52.896Z,9.20
2018-11-29T13:40:21.206Z,9.10
2018-11-29T13:42:49.482Z,9.10
2018-11-29T13:45:17.731Z,9.00
2018-11-29T13:47:46.020Z,8.80
2018-11-29T13:50:15.371Z,8.80
2018-11-29T13:52:43.803Z,8.40
2018-11-29T13:55:12.926Z,8.20
2018-11-29T13:57:42.007Z,8.20
2018-11-29T14:00:13.516Z,8.30
2018-11-29T14:02:41.845Z,8.30
2018-11-29T14:05:10.693Z,8.20
2018-11-29T14:07:39.100Z,8.20
2018-11-29T14:10:12.771Z,8.20
2018-11-29T14:12:41.065Z,8.20
2018-11-29T14:15:21.059Z,8.20
2018-11-29T14:17:49.379Z,8.20
2018-11-29T14:20:17.713Z,8.30
2018-11-29T14:22:45.978Z,8.20
2018-11-29T14:25:15.095Z,8.20
2018-11-29T14:27:44.686Z,8.30
2018-11-29T14:30:18.005Z,8.10
2018-11-29T14:32:46.351Z,8.00
2018-11-29T14:35:14.612Z,7.90
2018-11-29T14:37:42.965Z,7.80
2018-11-29T14:40:16.240Z,7.60
2018-11-29T14:42:44.491Z,7.50
2018-11-29T14:45:13.883Z,7.40
2018-11-29T14:47:42.137Z,7.30
2018-11-29T14:50:12.948Z,7.40
2018-11-29T14:52:41.215Z,7.40
2018-11-29T14:55:10.506Z,7.50
2018-11-29T14:57:38.912Z,7.60
2018-11-29T15:00:09.418Z,7.50
2018-11-29T15:02:37.712Z,7.50
2018-11-29T15:05:09.626Z,7.50
2018-11-29T15:07:38.000Z,7.60
2018-11-29T15:10:07.692Z,7.60
2018-11-29T15:12:36.083Z,7.70
2018-11-29T15:15:04.505Z,7.60
2018-11-29T15:17:32.846Z,7.50
2018-11-29T15:20:01.132Z,7.50
2018-11-29T15:22:29.491Z,7.40
2018-11-29T15:24:57.773Z,7.40
2018-11-29T15:27:26.288Z,7.40
2018-11-29T15:29:54.554Z,7.40
2018-11-29T15:32:22.848Z,7.40
2018-11-29T15:34:51.106Z,7.30
2018-11-29T15:37:19.432Z,7.30
2018-11-29T15:39:47.719Z,7.20
2018-11-29T15:42:15.971Z,7.10
2018-11-29T15:44:44.264Z,7.00
2018-11-29T15:47:12.577Z,6.90
2018-11-29T15:49:40.915Z,7.00
2018-11-29T15:52:09.295Z,6.90
2018-11-29T15:54:37.619Z,6.90
2018-11-29T15:57:05.845Z,6.60
2018-11-29T15:59:34.158Z,6.40
2018-11-29T16:02:02.445Z,6.40
2018-11-29T16:04:30.781Z,6.40
2018-11-29T16:06:59.049Z,6.30
2018-11-29T16:09:27.357Z,6.20
2018-11-29T16:11:55.612Z,6.20
2018-11-29T16:14:23.884Z,6.10
2018-11-29T16:16:52.254Z,6.10
2018-11-29T16:19:20.468Z,6.00
2018-11-29T16:21:51.322Z,6.10
2018-11-29T16:24:17.192Z,6.00
2018-11-29T16:26:45.431Z,6.00
2018-11-29T16:29:13.730Z,6.00
2018-11-29T16:31:41.994Z,6.00
2018-11-29T16:34:10.310Z,6.00
2018-11-29T16:36:38.619Z,6.00
2018-11-29T16:39:07.862Z,6.10
2018-11-29T16:41:36.148Z,6.20
2018-11-29T16:44:04.564Z,6.10
2018-11-29T16:46:32.857Z,6.10
2018-11-29T16:49:02.907Z,6.10
2018-11-29T16:51:29.393Z,6.00
2018-11-29T16:53:57.671Z,6.00
2018-11-29T16:56:26.331Z,5.90
2018-11-29T16:58:54.416Z,5.90
2018-11-29T17:01:22.729Z,5.80
2018-11-29T17:03:50.983Z,5.70
2018-11-29T17:06:19.316Z,5.70
2018-11-29T17:08:47.601Z,5.70
2018-11-29T17:11:15.878Z,5.60
2018-11-29T17:13:44.222Z,5.60
2018-11-29T17:16:12.566Z,5.50
2018-11-29T17:18:40.802Z,5.40
2018-11-29T17:21:09.083Z,5.30
2018-11-29T17:23:37.435Z,5.40
2018-11-29T17:26:05.720Z,5.40
2018-11-29T17:28:34.046Z,5.40
2018-11-29T17:31:02.379Z,5.30
2018-11-29T17:33:30.626Z,5.40
2018-11-29T17:35:58.934Z,5.30
2018-11-29T17:38:27.256Z,5.30
2018-11-29T17:40:55.583Z,5.30
2018-11-29T17:43:23.876Z,5.20
2018-11-29T17:45:52.136Z,5.30
2018-11-29T17:48:20.526Z,5.40
2018-11-29T17:50:48.886Z,5.30
2018-11-29T17:53:17.141Z,5.30
2018-11-29T17:55:45.399Z,5.30
2018-11-29T17:58:14.874Z,5.20
2018-11-29T18:00:44.784Z,5.30
2018-11-29T18:03:14.258Z,5.20
2018-11-29T18:05:42.620Z,5.20
2018-11-29T18:08:10.945Z,5.30
2018-11-29T18:10:40.851Z,5.20
2018-11-29T18:13:13.337Z,5.10
2018-11-29T18:15:41.696Z,5.00
2018-11-29T18:18:10.106Z,5.10
2018-11-29T18:20:38.637Z,5.00
2018-11-29T18:23:08.026Z,4.90
2018-11-29T18:25:36.436Z,4.80
2018-11-29T18:28:05.126Z,4.80
2018-11-29T18:30:37.527Z,4.80
2018-11-29T18:33:06.789Z,4.70
2018-11-29T18:35:35.592Z,4.80
2018-11-29T18:38:03.861Z,4.80
2018-11-29T18:40:32.279Z,4.80
2018-11-29T18:43:00.727Z,4.80
2018-11-29T18:45:29.107Z,4.80
2018-11-29T18:47:57.355Z,4.80
2018-11-29T18:50:26.361Z,4.90
2018-11-29T18:52:54.796Z,5.00
2018-11-29T18:55:24.310Z,5.00
2018-11-29T18:57:53.215Z,5.00
2018-11-29T19:00:24.169Z,4.90
2018-11-29T19:02:57.000Z,5.00
2018-11-29T19:05:20.958Z,5.00
2018-11-29T19:07:50.001Z,4.90
2018-11-29T19:10:18.834Z,4.90
2018-11-29T19:12:56.587Z,4.90
2018-11-29T19:15:25.007Z,5.00
2018-11-29T19:17:53.360Z,5.00
2018-11-29T19:20:21.714Z,5.00
2018-11-29T19:22:50.033Z,5.00
2018-11-29T19:25:19.342Z,5.00
2018-11-29T19:27:47.585Z,5.00
2018-11-29T19:30:31.558Z,5.10
2018-11-29T19:33:01.911Z,5.10
2018-11-29T19:35:30.274Z,5.10
2018-11-29T19:37:58.619Z,5.10
2018-11-29T19:40:27.084Z,5.00
2018-11-29T19:42:55.462Z,5.00
2018-11-29T19:45:23.842Z,5.10
2018-11-29T19:47:52.134Z,5.10
2018-11-29T19:50:20.581Z,5.10
2018-11-29T19:52:53.579Z,5.10
2018-11-29T19:55:23.416Z,5.10
2018-11-29T19:57:51.919Z,5.20
2018-11-29T20:00:20.553Z,5.20
2018-11-29T20:02:50.052Z,5.10
2018-11-29T20:05:18.340Z,5.10
2018-11-29T20:07:46.664Z,5.10
2018-11-29T20:10:16.141Z,5.10
2018-11-29T20:12:45.071Z,5.00
2018-11-29T20:15:16.801Z,4.90
2018-11-29T20:17:45.138Z,5.00
2018-11-29T20:20:13.614Z,4.90
2018-11-29T20:22:42.759Z,4.90
2018-11-29T20:25:13.176Z,4.90
2018-11-29T20:27:41.573Z,5.00
2018-11-29T20:30:15.117Z,5.00
2018-11-29T20:32:43.494Z,4.90
2018-11-29T20:35:12.521Z,5.00
2018-11-29T20:37:40.980Z,5.10
2018-11-29T20:40:12.235Z,4.90
2018-11-29T20:42:40.600Z,4.90
2018-11-29T20:45:13.321Z,4.90
2018-11-29T20:47:41.726Z,4.80
2018-11-29T20:50:14.831Z,4.80
2018-11-29T20:52:41.364Z,4.70
2018-11-29T20:55:11.488Z,4.70
2018-11-29T20:57:39.786Z,4.70
2018-11-29T21:00:10.649Z,4.70
2018-11-29T21:02:39.275Z,4.60
2018-11-29T21:05:09.612Z,4.60
2018-11-29T21:07:38.007Z,4.60
2018-11-29T21:10:11.041Z,4.60
2018-11-29T21:12:39.385Z,4.60
2018-11-29T21:15:07.733Z,4.70
2018-11-29T21:17:36.019Z,4.60
2018-11-29T21:20:05.132Z,4.60
2018-11-29T21:22:33.441Z,4.60
2018-11-29T21:25:01.849Z,4.60
2018-11-29T21:27:30.251Z,4.50
2018-11-29T21:29:58.599Z,4.60
2018-11-29T21:32:27.036Z,4.60
2018-11-29T21:34:55.396Z,4.60
2018-11-29T21:37:23.710Z,4.60
2018-11-29T21:39:52.081Z,4.50
2018-11-29T21:42:20.387Z,4.50
2018-11-29T21:44:48.751Z,4.50
2018-11-29T21:47:17.022Z,4.50
2018-11-29T21:49:45.276Z,4.50
2018-11-29T21:52:13.676Z,4.50
2018-11-29T21:54:42.046Z,4.50
2018-11-29T21:57:10.539Z,4.50
2018-11-29T21:59:38.942Z,4.50
2018-11-29T22:02:07.776Z,4.50
2018-11-29T22:04:36.181Z,4.60
2018-11-29T22:07:04.649Z,4.60
2018-11-29T22:09:33.134Z,4.60
2018-11-29T22:12:01.565Z,4.60
2018-11-29T22:14:29.887Z,4.60
2018-11-29T22:16:58.331Z,4.50
2018-11-29T22:19:26.810Z,4.60
2018-11-29T22:21:55.225Z,4.60
2018-11-29T22:24:23.558Z,4.60
2018-11-29T22:26:52.031Z,4.60
2018-11-29T22:29:20.510Z,4.60
2018-11-29T22:31:48.795Z,4.70
2018-11-29T22:34:17.100Z,4.70
2018-11-29T22:36:45.582Z,4.70
2018-11-29T22:39:13.904Z,4.70
2018-11-29T22:41:42.456Z,4.80
2018-11-29T22:44:10.807Z,4.80
2018-11-29T22:46:39.181Z,4.80
2018-11-29T22:49:07.502Z,4.80
2018-11-29T22:51:35.772Z,4.70
2018-11-29T22:54:04.065Z,4.80
2018-11-29T22:56:32.383Z,4.90
2018-11-29T22:59:00.617Z,4.80
2018-11-29T23:01:29.321Z,4.80
2018-11-29T23:03:57.726Z,4.90
2018-11-29T23:06:26.183Z,4.90
2018-11-29T23:08:54.517Z,4.80
2018-11-29T23:11:22.769Z,5.10
2018-11-29T23:13:51.147Z,5.10
2018-11-29T23:16:19.402Z,5.10
2018-11-29T23:18:47.754Z,5.10
2018-11-29T23:21:16.153Z,5.10
2018-11-29T23:23:44.468Z,5.20
2018-11-29T23:26:12.766Z,5.20
2018-11-29T23:28:41.046Z,5.20
2018-11-29T23:31:09.333Z,5.20
2018-11-29T23:33:37.661Z,5.30
2018-11-29T23:36:06.199Z,5.30
2018-11-29T23:38:34.520Z,5.30
2018-11-29T23:41:02.776Z,5.30
2018-11-29T23:43:31.107Z,5.30
2018-11-29T23:45:59.398Z,5.50
2018-11-29T23:48:27.708Z,5.50
2018-11-29T23:50:55.990Z,5.50
2018-11-29T23:53:24.274Z,5.60
2018-11-29T23:55:52.585Z,5.60
2018-11-29T23:58:20.956Z,5.50
